createdAt,value
2022-07-30T00:00:24.690Z,96323
2022-07-30T00:02:15.577Z,96319
2022-07-30T00:03:15.704Z,96316
2022-07-30T00:05:15.609Z,96318
2022-07-30T00:07:15.603Z,96322
2022-07-30T00:08:15.603Z,96322
2022-07-30T00:10:15.598Z,96321
2022-07-30T00:11:15.607Z,96325
2022-07-30T00:12:15.620Z,96322
2022-07-30T00:13:15.615Z,96324
2022-07-30T00:15:15.644Z,96322
2022-07-30T00:16:15.678Z,96327
2022-07-30T00:17:15.638Z,96323
2022-07-30T00:18:15.616Z,96323
2022-07-30T00:19:15.638Z,96326
2022-07-30T00:20:15.618Z,96325
2022-07-30T00:21:20.270Z,96327
2022-07-30T00:22:15.640Z,96324
2022-07-30T00:23:15.645Z,96321
2022-07-30T00:24:15.657Z,96321
2022-07-30T00:25:15.661Z,96322
2022-07-30T00:26:15.794Z,96324
2022-07-30T00:27:15.638Z,96323
2022-07-30T00:29:15.666Z,96321
2022-07-30T00:30:15.650Z,96321
2022-07-30T00:31:15.715Z,96320
2022-07-30T00:32:15.670Z,96320
2022-07-30T00:35:15.659Z,96320
2022-07-30T00:37:15.664Z,96323
2022-07-30T00:38:15.683Z,96324
2022-07-30T00:39:15.673Z,96324
2022-07-30T00:41:15.872Z,96325
2022-07-30T00:42:15.690Z,96318
2022-07-30T00:43:20.111Z,96319
2022-07-30T00:45:15.680Z,96322
2022-07-30T00:48:15.737Z,96322
2022-07-30T00:50:15.694Z,96321
2022-07-30T00:51:15.707Z,96321
2022-07-30T00:53:15.725Z,96322
2022-07-30T00:54:15.709Z,96326
2022-07-30T00:55:15.714Z,96327
2022-07-30T00:56:15.723Z,96327
2022-07-30T00:57:15.722Z,96327
2022-07-30T00:58:15.753Z,96330
2022-07-30T00:59:15.724Z,96330
2022-07-30T01:00:15.736Z,96330
2022-07-30T01:01:15.801Z,96330
2022-07-30T01:04:15.799Z,96332
2022-07-30T01:05:15.726Z,96334
2022-07-30T01:06:15.738Z,96334
2022-07-30T01:07:15.740Z,96335
2022-07-30T01:10:15.779Z,96336
2022-07-30T01:11:15.755Z,96338
2022-07-30T01:12:15.843Z,96338
2022-07-30T01:13:15.785Z,96339
2022-07-30T01:14:15.783Z,96339
2022-07-30T01:15:15.764Z,96338
2022-07-30T01:18:15.804Z,96333
2022-07-30T01:19:15.789Z,96328
2022-07-30T01:20:20.345Z,96327
2022-07-30T01:21:15.788Z,96327
2022-07-30T01:22:15.786Z,96325
2022-07-30T01:23:15.802Z,96325
2022-07-30T01:24:15.811Z,96329
2022-07-30T01:25:15.804Z,96329
2022-07-30T01:26:15.820Z,96329
2022-07-30T01:27:19.646Z,96329
2022-07-30T01:28:18.367Z,96329
2022-07-30T01:29:15.805Z,96329
2022-07-30T01:30:15.806Z,96329
2022-07-30T01:31:15.844Z,96330
2022-07-30T01:32:15.820Z,96334
2022-07-30T01:33:15.820Z,96333
2022-07-30T01:34:15.819Z,96333
2022-07-30T01:35:15.812Z,96333
2022-07-30T01:36:15.845Z,96332
2022-07-30T01:37:15.832Z,96333
2022-07-30T01:38:15.845Z,96334
2022-07-30T01:41:15.848Z,96334
2022-07-30T01:42:15.834Z,96334
2022-07-30T01:43:15.828Z,96334
2022-07-30T01:44:15.845Z,96334
2022-07-30T01:45:15.845Z,96331
2022-07-30T01:46:15.975Z,96334
2022-07-30T01:48:15.846Z,96332
2022-07-30T01:49:15.915Z,96336
2022-07-30T01:50:15.859Z,96336
2022-07-30T01:51:15.859Z,96336
2022-07-30T01:52:15.864Z,96335
2022-07-30T01:53:15.870Z,96335
2022-07-30T01:54:15.860Z,96335
2022-07-30T01:55:17.377Z,96332
2022-07-30T01:56:16.624Z,96332
2022-07-30T01:57:20.540Z,96329
2022-07-30T01:58:15.882Z,96329
2022-07-30T01:59:15.889Z,96330
2022-07-30T02:00:15.924Z,96328
2022-07-30T02:01:16.019Z,96331
2022-07-30T02:02:17.922Z,96331
2022-07-30T02:03:15.966Z,96328
2022-07-30T02:04:15.883Z,96330
2022-07-30T02:05:15.910Z,96328
2022-07-30T02:07:15.922Z,96333
2022-07-30T02:08:15.908Z,96331
2022-07-30T02:09:15.909Z,96328
2022-07-30T02:10:15.896Z,96333
2022-07-30T02:11:15.904Z,96329
2022-07-30T02:12:15.910Z,96328
2022-07-30T02:14:15.930Z,96325
2022-07-30T02:15:15.922Z,96327
2022-07-30T02:16:15.955Z,96324
2022-07-30T02:17:19.026Z,96321
2022-07-30T02:18:15.926Z,96325
2022-07-30T02:20:15.925Z,96328
2022-07-30T02:23:15.976Z,96321
2022-07-30T02:24:15.943Z,96321
2022-07-30T02:25:15.952Z,96323
2022-07-30T02:26:15.962Z,96321
2022-07-30T02:27:15.950Z,96322
2022-07-30T02:28:15.947Z,96322
2022-07-30T02:29:15.966Z,96319
2022-07-30T02:30:15.963Z,96316
2022-07-30T02:31:17.539Z,96313
2022-07-30T02:33:15.980Z,96311
2022-07-30T02:34:20.744Z,96314
2022-07-30T02:35:15.965Z,96314
2022-07-30T02:36:15.982Z,96312
2022-07-30T02:37:15.972Z,96314
2022-07-30T02:38:15.988Z,96313
2022-07-30T02:39:15.977Z,96316
2022-07-30T02:40:16.005Z,96315
2022-07-30T02:41:16.011Z,96315
2022-07-30T02:42:15.995Z,96311
2022-07-30T02:43:15.986Z,96311
2022-07-30T02:44:16.005Z,96314
2022-07-30T02:46:16.030Z,96314
2022-07-30T02:47:15.996Z,96317
2022-07-30T02:50:16.048Z,96318
2022-07-30T02:51:16.010Z,96317
2022-07-30T02:52:16.034Z,96320
2022-07-30T02:53:16.019Z,96319
2022-07-30T02:54:16.016Z,96319
2022-07-30T02:55:16.021Z,96321
2022-07-30T02:56:16.030Z,96320
2022-07-30T02:57:16.025Z,96323
2022-07-30T02:58:16.033Z,96325
2022-07-30T03:01:16.110Z,96332
2022-07-30T03:02:16.136Z,96326
2022-07-30T03:03:16.056Z,96330
2022-07-30T03:05:16.066Z,96334
2022-07-30T03:07:16.111Z,96333
2022-07-30T03:08:19.362Z,96325
2022-07-30T03:10:16.060Z,96329
2022-07-30T03:11:20.988Z,96328
2022-07-30T03:15:16.112Z,96339
2022-07-30T03:16:16.172Z,96342
2022-07-30T03:19:16.117Z,96341
2022-07-30T03:20:16.102Z,96341
2022-07-30T03:21:16.087Z,96341
2022-07-30T03:23:16.096Z,96344
2022-07-30T03:24:16.121Z,96346
2022-07-30T03:25:16.125Z,96346
2022-07-30T03:26:16.104Z,96345
2022-07-30T03:27:16.143Z,96342
2022-07-30T03:29:16.126Z,96348
2022-07-30T03:30:16.162Z,96349
2022-07-30T03:31:16.171Z,96349
2022-07-30T03:33:16.135Z,96351
2022-07-30T03:34:16.136Z,96351
2022-07-30T03:35:16.906Z,96351
2022-07-30T03:36:16.156Z,96352
2022-07-30T03:38:16.145Z,96349
2022-07-30T03:39:16.146Z,96349
2022-07-30T03:40:16.144Z,96350
2022-07-30T03:41:16.163Z,96349
2022-07-30T03:43:18.397Z,96350
2022-07-30T03:44:16.162Z,96352
2022-07-30T03:45:16.195Z,96354
2022-07-30T03:46:16.204Z,96353
2022-07-30T03:47:16.161Z,96353
2022-07-30T03:51:16.192Z,96358
2022-07-30T03:52:16.183Z,96356
2022-07-30T03:53:16.168Z,96356
2022-07-30T03:54:16.181Z,96358
2022-07-30T03:56:16.217Z,96361
2022-07-30T03:57:20.193Z,96362
2022-07-30T03:58:16.201Z,96360
2022-07-30T04:00:16.252Z,96362
2022-07-30T04:01:16.261Z,96362
2022-07-30T04:02:16.198Z,96363
2022-07-30T04:03:16.364Z,96361
2022-07-30T04:04:16.222Z,96364
2022-07-30T04:05:16.204Z,96364
2022-07-30T04:06:16.207Z,96364
2022-07-30T04:07:16.198Z,96366
2022-07-30T04:09:16.220Z,96367
2022-07-30T04:10:16.232Z,96369
2022-07-30T04:11:16.244Z,96369
2022-07-30T04:13:16.245Z,96370
2022-07-30T04:14:16.246Z,96370
2022-07-30T04:16:37.205Z,96371
2022-07-30T04:16:39.283Z,96371
2022-07-30T04:17:16.338Z,96372
2022-07-30T04:18:16.248Z,96372
2022-07-30T04:20:18.088Z,96373
2022-07-30T04:21:16.975Z,96373
2022-07-30T04:22:16.357Z,96375
2022-07-30T04:23:16.238Z,96375
2022-07-30T04:24:16.264Z,96377
2022-07-30T04:25:20.445Z,96378
2022-07-30T04:26:16.257Z,96376
2022-07-30T04:27:16.262Z,96376
2022-07-30T04:28:16.260Z,96376
2022-07-30T04:30:16.255Z,96379
2022-07-30T04:31:16.380Z,96380
2022-07-30T04:32:16.274Z,96380
2022-07-30T04:33:16.295Z,96381
2022-07-30T04:34:16.271Z,96381
2022-07-30T04:35:50.098Z,96382
2022-07-30T04:36:16.497Z,96383
2022-07-30T04:37:16.295Z,96383
2022-07-30T04:38:16.311Z,96388
2022-07-30T04:39:16.282Z,96388
2022-07-30T04:40:16.319Z,96388
2022-07-30T04:42:16.359Z,96394
2022-07-30T04:43:16.293Z,96394
2022-07-30T04:44:16.304Z,96398
2022-07-30T04:47:16.310Z,96403
2022-07-30T04:48:16.314Z,96403
2022-07-30T04:50:16.315Z,96404
2022-07-30T04:51:16.321Z,96408
2022-07-30T04:52:16.351Z,96408
2022-07-30T04:53:16.324Z,96412
2022-07-30T04:54:16.425Z,96413
2022-07-30T04:55:16.328Z,96412
2022-07-30T04:56:16.348Z,96414
2022-07-30T04:59:16.650Z,96417
2022-07-30T05:00:16.334Z,96417
2022-07-30T05:01:16.440Z,96417
2022-07-30T05:02:16.416Z,96417
2022-07-30T05:03:16.343Z,96416
2022-07-30T05:04:16.349Z,96419
2022-07-30T05:05:16.415Z,96416
2022-07-30T05:06:16.366Z,96421
2022-07-30T05:07:16.361Z,96421
2022-07-30T05:08:16.372Z,96419
2022-07-30T05:09:16.409Z,96420
2022-07-30T05:10:16.360Z,96420
2022-07-30T05:11:16.367Z,96421
2022-07-30T05:12:16.383Z,96426
2022-07-30T05:13:16.372Z,96426
2022-07-30T05:14:16.386Z,96425
2022-07-30T05:15:16.375Z,96425
2022-07-30T05:16:16.455Z,96425
2022-07-30T05:17:16.398Z,96431
2022-07-30T05:18:16.397Z,96431
2022-07-30T05:19:16.413Z,96433
2022-07-30T05:21:16.400Z,96435
2022-07-30T05:22:16.388Z,96435
2022-07-30T05:23:16.387Z,96438
2022-07-30T05:24:16.406Z,96439
2022-07-30T05:25:16.439Z,96434
2022-07-30T05:26:16.404Z,96435
2022-07-30T05:27:16.407Z,96439
2022-07-30T05:29:19.874Z,96437
2022-07-30T05:30:16.423Z,96439
2022-07-30T05:31:16.478Z,96439
2022-07-30T05:32:16.433Z,96438
2022-07-30T05:33:16.424Z,96438
2022-07-30T05:34:16.427Z,96439
2022-07-30T05:35:16.430Z,96439
2022-07-30T05:36:16.851Z,96441
2022-07-30T05:37:16.435Z,96438
2022-07-30T05:38:16.446Z,96441
2022-07-30T05:39:16.553Z,96441
2022-07-30T05:40:16.440Z,96443
2022-07-30T05:41:18.212Z,96440
2022-07-30T05:42:16.452Z,96440
2022-07-30T05:43:16.449Z,96441
2022-07-30T05:44:19.573Z,96441
2022-07-30T05:45:16.458Z,96441
2022-07-30T05:46:16.475Z,96445
2022-07-30T05:47:16.465Z,96441
2022-07-30T05:48:16.455Z,96440
2022-07-30T05:49:16.547Z,96440
2022-07-30T05:50:16.482Z,96440
2022-07-30T05:51:16.463Z,96438
2022-07-30T05:52:16.485Z,96441
2022-07-30T05:53:16.477Z,96441
2022-07-30T05:54:16.485Z,96445
2022-07-30T05:55:16.477Z,96439
2022-07-30T05:56:16.508Z,96439
2022-07-30T05:57:16.498Z,96438
2022-07-30T05:58:16.472Z,96441
2022-07-30T05:59:16.517Z,96448
2022-07-30T06:01:16.537Z,96447
2022-07-30T06:03:16.519Z,96455
2022-07-30T06:04:16.600Z,96452
2022-07-30T06:05:16.509Z,96454
2022-07-30T06:06:20.996Z,96458
2022-07-30T06:08:16.508Z,96459
2022-07-30T06:09:16.556Z,96460
2022-07-30T06:11:16.570Z,96461
2022-07-30T06:13:17.048Z,96462
2022-07-30T06:16:16.692Z,96462
2022-07-30T06:17:16.562Z,96459
2022-07-30T06:18:16.538Z,96462
2022-07-30T06:19:19.373Z,96455
2022-07-30T06:20:16.541Z,96459
2022-07-30T06:21:16.557Z,96457
2022-07-30T06:22:16.566Z,96457
2022-07-30T06:23:16.546Z,96458
2022-07-30T06:24:16.562Z,96457
2022-07-30T06:25:18.611Z,96457
2022-07-30T06:26:16.593Z,96457
2022-07-30T06:27:16.565Z,96463
2022-07-30T06:28:36.510Z,96463
2022-07-30T06:29:16.580Z,96466
2022-07-30T06:30:16.587Z,96466
2022-07-30T06:31:16.603Z,96466
2022-07-30T06:32:16.582Z,96466
2022-07-30T06:33:16.588Z,96466
2022-07-30T06:34:16.589Z,96467
2022-07-30T06:35:16.574Z,96470
2022-07-30T06:36:16.606Z,96469
2022-07-30T06:37:16.603Z,96468
2022-07-30T06:38:16.604Z,96471
2022-07-30T06:39:56.207Z,96471
2022-07-30T06:40:16.595Z,96474
2022-07-30T06:41:16.601Z,96470
2022-07-30T06:42:16.609Z,96470
2022-07-30T06:43:16.596Z,96471
2022-07-30T06:44:16.594Z,96468
2022-07-30T06:45:16.610Z,96470
2022-07-30T06:46:16.724Z,96468
2022-07-30T06:47:16.628Z,96470
2022-07-30T06:48:16.664Z,96468
2022-07-30T06:49:16.701Z,96471
2022-07-30T06:50:17.293Z,96467
2022-07-30T06:51:16.639Z,96471
2022-07-30T06:52:18.734Z,96471
2022-07-30T06:54:16.626Z,96466
2022-07-30T06:55:16.634Z,96465
2022-07-30T06:56:16.635Z,96467
2022-07-30T06:57:16.641Z,96470
2022-07-30T06:58:16.644Z,96472
2022-07-30T07:00:16.654Z,96473
2022-07-30T07:02:16.681Z,96474
2022-07-30T07:03:16.669Z,96476
2022-07-30T07:04:16.740Z,96481
2022-07-30T07:05:16.662Z,96480
2022-07-30T07:06:16.675Z,96477
2022-07-30T07:07:31.566Z,96477
2022-07-30T07:08:16.668Z,96477
2022-07-30T07:09:16.693Z,96478
2022-07-30T07:10:16.689Z,96475
2022-07-30T07:11:16.688Z,96482
2022-07-30T07:12:16.700Z,96475
2022-07-30T07:13:16.693Z,96476
2022-07-30T07:14:16.676Z,96477
2022-07-30T07:15:16.695Z,96477
2022-07-30T07:16:16.706Z,96477
2022-07-30T07:17:16.765Z,96482
2022-07-30T07:18:16.707Z,96480
2022-07-30T07:19:59.398Z,96480
2022-07-30T07:20:16.695Z,96481
2022-07-30T07:21:16.692Z,96481
2022-07-30T07:22:16.706Z,96483
2022-07-30T07:23:16.711Z,96486
2022-07-30T07:24:16.717Z,96483
2022-07-30T07:25:16.718Z,96480
2022-07-30T07:26:16.719Z,96481
2022-07-30T07:27:17.501Z,96478
2022-07-30T07:28:16.716Z,96478
2022-07-30T07:29:16.741Z,96479
2022-07-30T07:30:16.730Z,96479
2022-07-30T07:32:05.499Z,96474
2022-07-30T07:32:16.734Z,96478
2022-07-30T07:33:16.752Z,96478
2022-07-30T07:34:17.248Z,96477
2022-07-30T07:35:16.731Z,96479
2022-07-30T07:36:16.738Z,96475
2022-07-30T07:37:16.772Z,96475
2022-07-30T07:38:16.743Z,96475
2022-07-30T07:39:16.761Z,96480
2022-07-30T07:40:16.750Z,96483
2022-07-30T07:41:16.741Z,96476
2022-07-30T07:42:16.755Z,96478
2022-07-30T07:43:16.751Z,96482
2022-07-30T07:44:16.753Z,96483
2022-07-30T07:45:16.766Z,96481
2022-07-30T07:46:16.874Z,96481
2022-07-30T07:47:16.774Z,96479
2022-07-30T07:48:16.805Z,96479
2022-07-30T07:49:16.856Z,96480
2022-07-30T07:50:16.778Z,96482
2022-07-30T07:51:16.776Z,96481
2022-07-30T07:52:16.788Z,96479
2022-07-30T07:53:16.799Z,96482
2022-07-30T07:54:21.610Z,96483
2022-07-30T07:55:16.818Z,96480
2022-07-30T07:56:16.788Z,96482
2022-07-30T07:57:16.829Z,96482
2022-07-30T07:58:25.559Z,96482
2022-07-30T07:59:16.803Z,96486
2022-07-30T08:00:16.810Z,96486
2022-07-30T08:01:16.852Z,96477
2022-07-30T08:02:16.887Z,96481
2022-07-30T08:03:16.823Z,96480
2022-07-30T08:04:17.691Z,96478
2022-07-30T08:05:16.798Z,96478
2022-07-30T08:06:16.833Z,96475
2022-07-30T08:07:16.834Z,96480
2022-07-30T08:08:16.844Z,96480
2022-07-30T08:09:18.223Z,96477
2022-07-30T08:10:16.820Z,96477
2022-07-30T08:11:16.837Z,96480
2022-07-30T08:12:16.849Z,96480
2022-07-30T08:13:52.065Z,96475
2022-07-30T08:14:16.854Z,96477
2022-07-30T08:15:19.067Z,96477
2022-07-30T08:16:16.998Z,96477
2022-07-30T08:17:16.904Z,96478
2022-07-30T08:18:16.858Z,96477
2022-07-30T08:19:16.875Z,96473
2022-07-30T08:20:16.877Z,96478
2022-07-30T08:21:16.890Z,96479
2022-07-30T08:22:16.885Z,96479
2022-07-30T08:23:16.867Z,96481
2022-07-30T08:24:16.871Z,96481
2022-07-30T08:25:23.905Z,96479
2022-07-30T08:26:16.879Z,96479
2022-07-30T08:27:16.888Z,96478
2022-07-30T08:28:36.137Z,96483
2022-07-30T08:29:17.346Z,96483
2022-07-30T08:30:16.883Z,96477
2022-07-30T08:31:16.900Z,96482
2022-07-30T08:32:16.907Z,96483
2022-07-30T08:33:16.893Z,96478
2022-07-30T08:34:16.968Z,96478
2022-07-30T08:35:16.889Z,96478
2022-07-30T08:36:16.897Z,96480
2022-07-30T08:37:16.897Z,96481
2022-07-30T08:38:16.904Z,96479
2022-07-30T08:39:16.921Z,96479
2022-07-30T08:40:16.901Z,96484
2022-07-30T08:41:17.883Z,96481
2022-07-30T08:42:16.913Z,96481
2022-07-30T08:43:16.918Z,96482
2022-07-30T08:45:16.972Z,96481
2022-07-30T08:46:16.932Z,96481
2022-07-30T08:47:16.916Z,96479
2022-07-30T08:48:16.969Z,96480
2022-07-30T08:49:16.925Z,96480
2022-07-30T08:50:17.163Z,96482
2022-07-30T08:51:16.935Z,96479
2022-07-30T08:52:16.957Z,96478
2022-07-30T08:53:16.937Z,96479
2022-07-30T08:55:16.971Z,96479
2022-07-30T08:56:16.949Z,96480
2022-07-30T08:57:16.959Z,96478
2022-07-30T08:58:18.137Z,96480
2022-07-30T08:59:16.949Z,96482
2022-07-30T09:00:16.962Z,96482
2022-07-30T09:01:16.976Z,96481
2022-07-30T09:02:16.964Z,96484
2022-07-30T09:03:16.974Z,96485
2022-07-30T09:05:16.956Z,96481
2022-07-30T09:06:16.971Z,96482
2022-07-30T09:07:16.975Z,96480
2022-07-30T09:08:18.797Z,96477
2022-07-30T09:09:17.002Z,96475
2022-07-30T09:10:17.012Z,96474
2022-07-30T09:11:16.994Z,96476
2022-07-30T09:12:16.989Z,96472
2022-07-30T09:14:17.013Z,96470
2022-07-30T09:15:16.991Z,96472
2022-07-30T09:17:17.005Z,96479
2022-07-30T09:18:18.075Z,96482
2022-07-30T09:19:17.024Z,96482
2022-07-30T09:20:17.038Z,96478
2022-07-30T09:21:17.014Z,96480
2022-07-30T09:22:17.025Z,96481
2022-07-30T09:23:17.016Z,96478
2022-07-30T09:24:17.031Z,96479
2022-07-30T09:25:17.044Z,96479
2022-07-30T09:26:17.034Z,96479
2022-07-30T09:27:17.037Z,96479
2022-07-30T09:28:17.191Z,96481
2022-07-30T09:29:17.043Z,96476
2022-07-30T09:30:17.190Z,96477
2022-07-30T09:31:17.199Z,96475
2022-07-30T09:32:17.052Z,96479
2022-07-30T09:33:17.053Z,96475
2022-07-30T09:34:17.060Z,96474
2022-07-30T09:35:17.048Z,96478
2022-07-30T09:36:17.117Z,96480
2022-07-30T09:37:17.157Z,96478
2022-07-30T09:38:17.058Z,96478
2022-07-30T09:39:17.055Z,96477
2022-07-30T09:40:17.160Z,96481
2022-07-30T09:41:36.295Z,96479
2022-07-30T09:42:17.074Z,96478
2022-07-30T09:43:17.075Z,96479
2022-07-30T09:44:17.071Z,96471
2022-07-30T09:45:17.105Z,96477
2022-07-30T09:46:17.082Z,96475
2022-07-30T09:47:17.094Z,96482
2022-07-30T09:48:17.106Z,96481
2022-07-30T09:49:17.357Z,96474
2022-07-30T09:50:18.019Z,96476
2022-07-30T09:51:19.298Z,96471
2022-07-30T09:52:17.084Z,96470
2022-07-30T09:53:17.097Z,96471
2022-07-30T09:54:17.101Z,96470
2022-07-30T09:55:18.290Z,96469
2022-07-30T09:56:17.115Z,96470
2022-07-30T09:57:25.915Z,96470
2022-07-30T09:58:26.962Z,96470
2022-07-30T09:59:18.617Z,96470
2022-07-30T10:00:17.120Z,96470
2022-07-30T10:01:17.166Z,96468
2022-07-30T10:02:17.144Z,96468
2022-07-30T10:03:33.162Z,96461
2022-07-30T10:04:17.148Z,96463
2022-07-30T10:05:17.147Z,96463
2022-07-30T10:06:17.144Z,96471
2022-07-30T10:07:17.133Z,96471
2022-07-30T10:08:19.001Z,96467
2022-07-30T10:09:17.160Z,96467
2022-07-30T10:10:17.201Z,96463
2022-07-30T10:11:17.171Z,96461
2022-07-30T10:12:17.165Z,96463
2022-07-30T10:14:17.167Z,96460
2022-07-30T10:15:17.156Z,96460
2022-07-30T10:16:17.168Z,96462
2022-07-30T10:17:17.545Z,96460
2022-07-30T10:18:17.556Z,96458
2022-07-30T10:19:19.304Z,96459
2022-07-30T10:20:17.174Z,96458
2022-07-30T10:21:17.177Z,96459
2022-07-30T10:22:17.299Z,96454
2022-07-30T10:23:18.419Z,96458
2022-07-30T10:24:17.183Z,96458
2022-07-30T10:25:17.194Z,96456
2022-07-30T10:26:17.427Z,96455
2022-07-30T10:27:17.205Z,96451
2022-07-30T10:28:17.218Z,96447
2022-07-30T10:29:17.206Z,96443
2022-07-30T10:30:17.216Z,96443
2022-07-30T10:31:48.042Z,96439
2022-07-30T10:32:18.453Z,96439
2022-07-30T10:33:34.442Z,96439
2022-07-30T10:34:17.227Z,96436
2022-07-30T10:35:34.994Z,96434
2022-07-30T10:36:17.233Z,96436
2022-07-30T10:37:17.223Z,96433
2022-07-30T10:38:17.233Z,96432
2022-07-30T10:39:17.213Z,96430
2022-07-30T10:40:17.232Z,96426
2022-07-30T10:41:22.185Z,96427
2022-07-30T10:42:17.235Z,96430
2022-07-30T10:43:17.242Z,96432
2022-07-30T10:44:17.231Z,96434
2022-07-30T10:45:17.896Z,96433
2022-07-30T10:46:22.782Z,96435
2022-07-30T10:47:17.231Z,96435
2022-07-30T10:48:17.241Z,96432
2022-07-30T10:49:18.644Z,96432
2022-07-30T10:50:17.268Z,96434
2022-07-30T10:51:25.562Z,96435
2022-07-30T10:52:17.303Z,96442
2022-07-30T10:53:17.275Z,96436
2022-07-30T10:54:17.281Z,96434
2022-07-30T10:55:17.273Z,96434
2022-07-30T10:56:17.274Z,96435
2022-07-30T10:57:23.038Z,96431
2022-07-30T10:58:17.969Z,96431
2022-07-30T10:59:17.282Z,96436
2022-07-30T11:00:17.804Z,96436
2022-07-30T11:01:18.425Z,96431
2022-07-30T11:02:17.863Z,96429
2022-07-30T11:03:17.298Z,96431
2022-07-30T11:04:17.306Z,96434
2022-07-30T11:05:17.333Z,96434
2022-07-30T11:06:24.540Z,96434
2022-07-30T11:07:17.460Z,96435
2022-07-30T11:08:17.311Z,96435
2022-07-30T11:09:18.687Z,96437
2022-07-30T11:10:17.306Z,96437
2022-07-30T11:11:20.278Z,96433
2022-07-30T11:12:17.666Z,96434
2022-07-30T11:13:17.328Z,96434
2022-07-30T11:14:17.322Z,96437
2022-07-30T11:15:18.401Z,96430
2022-07-30T11:16:17.349Z,96430
2022-07-30T11:17:17.340Z,96430
2022-07-30T11:18:17.328Z,96424
2022-07-30T11:19:56.542Z,96430
2022-07-30T11:20:17.328Z,96422
2022-07-30T11:21:20.607Z,96422
2022-07-30T11:22:17.337Z,96422
2022-07-30T11:23:17.361Z,96424
2022-07-30T11:24:17.377Z,96428
2022-07-30T11:25:17.364Z,96427
2022-07-30T11:26:17.389Z,96424
2022-07-30T11:27:17.353Z,96424
2022-07-30T11:28:17.370Z,96427
2022-07-30T11:29:17.373Z,96423
2022-07-30T11:30:17.934Z,96423
2022-07-30T11:31:17.361Z,96424
2022-07-30T11:32:17.367Z,96429
2022-07-30T11:33:18.636Z,96426
2022-07-30T11:34:17.387Z,96426
2022-07-30T11:35:17.382Z,96422
2022-07-30T11:36:17.435Z,96425
2022-07-30T11:37:18.601Z,96425
2022-07-30T11:38:18.952Z,96421
2022-07-30T11:39:17.391Z,96419
2022-07-30T11:40:17.377Z,96419
2022-07-30T11:41:17.392Z,96422
2022-07-30T11:42:17.392Z,96422
2022-07-30T11:43:17.407Z,96423
2022-07-30T11:44:17.397Z,96423
2022-07-30T11:45:17.404Z,96417
2022-07-30T11:46:28.965Z,96423
2022-07-30T11:47:17.402Z,96427
2022-07-30T11:48:17.453Z,96427
2022-07-30T11:49:17.544Z,96427
2022-07-30T11:50:17.416Z,96426
2022-07-30T11:51:17.417Z,96425
2022-07-30T11:52:17.458Z,96424
2022-07-30T11:53:17.411Z,96424
2022-07-30T11:54:17.425Z,96428
2022-07-30T11:55:17.424Z,96423
2022-07-30T11:56:17.424Z,96428
2022-07-30T11:57:17.434Z,96419
2022-07-30T11:59:17.436Z,96421
2022-07-30T12:00:17.448Z,96419
2022-07-30T12:01:17.452Z,96419
2022-07-30T12:02:17.475Z,96418
2022-07-30T12:04:17.463Z,96419
2022-07-30T12:05:17.455Z,96420
2022-07-30T12:06:17.455Z,96420
2022-07-30T12:07:17.458Z,96416
2022-07-30T12:09:17.486Z,96417
2022-07-30T12:10:17.475Z,96417
2022-07-30T12:11:17.468Z,96410
2022-07-30T12:12:17.482Z,96410
2022-07-30T12:13:17.484Z,96410
2022-07-30T12:14:17.471Z,96410
2022-07-30T12:16:17.949Z,96409
2022-07-30T12:17:17.512Z,96409
2022-07-30T12:18:26.268Z,96405
2022-07-30T12:20:17.494Z,96405
2022-07-30T12:21:17.497Z,96406
2022-07-30T12:22:17.492Z,96407
2022-07-30T12:23:21.877Z,96410
2022-07-30T12:24:17.510Z,96410
2022-07-30T12:25:17.499Z,96411
2022-07-30T12:26:17.513Z,96411
2022-07-30T12:27:17.541Z,96404
2022-07-30T12:28:17.527Z,96406
2022-07-30T12:29:17.523Z,96406
2022-07-30T12:30:17.512Z,96406
2022-07-30T12:31:17.539Z,96412
2022-07-30T12:32:17.539Z,96412
2022-07-30T12:33:17.542Z,96414
2022-07-30T12:34:17.534Z,96412
2022-07-30T12:35:17.542Z,96410
2022-07-30T12:36:17.538Z,96410
2022-07-30T12:37:17.577Z,96407
2022-07-30T12:38:17.552Z,96405
2022-07-30T12:39:17.549Z,96405
2022-07-30T12:40:17.613Z,96402
2022-07-30T12:41:17.545Z,96405
2022-07-30T12:42:17.545Z,96405
2022-07-30T12:43:17.564Z,96404
2022-07-30T12:44:17.561Z,96404
2022-07-30T12:45:17.565Z,96402
2022-07-30T12:46:17.577Z,96402
2022-07-30T12:47:17.559Z,96399
2022-07-30T12:48:17.576Z,96399
2022-07-30T12:49:22.803Z,96400
2022-07-30T12:50:17.592Z,96400
2022-07-30T12:51:17.588Z,96398
2022-07-30T12:52:27.447Z,96396
2022-07-30T12:53:17.586Z,96392
2022-07-30T12:54:17.590Z,96388
2022-07-30T12:55:17.603Z,96390
2022-07-30T12:56:17.592Z,96390
2022-07-30T12:57:17.609Z,96390
2022-07-30T12:58:17.597Z,96392
2022-07-30T12:59:17.608Z,96392
2022-07-30T13:00:19.347Z,96390
2022-07-30T13:01:17.648Z,96390
2022-07-30T13:02:17.650Z,96385
2022-07-30T13:03:17.604Z,96383
2022-07-30T13:04:17.654Z,96383
2022-07-30T13:05:17.608Z,96383
2022-07-30T13:06:17.620Z,96380
2022-07-30T13:07:17.631Z,96379
2022-07-30T13:08:17.616Z,96379
2022-07-30T13:09:17.634Z,96377
2022-07-30T13:10:17.617Z,96376
2022-07-30T13:11:17.657Z,96376
2022-07-30T13:12:17.664Z,96377
2022-07-30T13:13:17.640Z,96376
2022-07-30T13:14:17.627Z,96377
2022-07-30T13:16:17.647Z,96375
2022-07-30T13:17:17.693Z,96376
2022-07-30T13:18:17.649Z,96378
2022-07-30T13:19:17.671Z,96377
2022-07-30T13:20:17.697Z,96383
2022-07-30T13:21:17.668Z,96383
2022-07-30T13:22:17.677Z,96376
2022-07-30T13:23:17.680Z,96376
2022-07-30T13:24:17.917Z,96385
2022-07-30T13:25:17.697Z,96382
2022-07-30T13:26:17.672Z,96382
2022-07-30T13:27:17.700Z,96386
2022-07-30T13:28:17.687Z,96382
2022-07-30T13:29:17.709Z,96383
2022-07-30T13:30:17.687Z,96381
2022-07-30T13:31:17.696Z,96381
2022-07-30T13:32:17.744Z,96384
2022-07-30T13:33:17.700Z,96385
2022-07-30T13:34:17.700Z,96382
2022-07-30T13:35:17.709Z,96382
2022-07-30T13:36:17.753Z,96387
2022-07-30T13:37:19.576Z,96382
2022-07-30T13:38:18.841Z,96383
2022-07-30T13:39:17.709Z,96384
2022-07-30T13:40:17.705Z,96384
2022-07-30T13:41:17.715Z,96382
2022-07-30T13:42:17.720Z,96382
2022-07-30T13:43:17.751Z,96382
2022-07-30T13:44:18.852Z,96380
2022-07-30T13:45:17.747Z,96378
2022-07-30T13:46:17.730Z,96378
2022-07-30T13:47:17.736Z,96377
2022-07-30T13:48:17.745Z,96375
2022-07-30T13:49:17.835Z,96375
2022-07-30T13:50:17.749Z,96371
2022-07-30T13:51:17.738Z,96371
2022-07-30T13:52:17.747Z,96376
2022-07-30T13:53:17.744Z,96373
2022-07-30T13:54:17.746Z,96376
2022-07-30T13:55:17.755Z,96376
2022-07-30T13:56:19.644Z,96375
2022-07-30T13:57:17.751Z,96377
2022-07-30T13:58:17.790Z,96377
2022-07-30T13:59:17.752Z,96375
2022-07-30T14:00:17.758Z,96375
2022-07-30T14:01:18.434Z,96380
2022-07-30T14:02:17.759Z,96378
2022-07-30T14:03:17.766Z,96382
2022-07-30T14:04:17.778Z,96378
2022-07-30T14:05:17.781Z,96378
2022-07-30T14:06:17.784Z,96376
2022-07-30T14:07:17.791Z,96369
2022-07-30T14:08:17.785Z,96368
2022-07-30T14:09:17.793Z,96366
2022-07-30T14:10:17.789Z,96366
2022-07-30T14:11:17.803Z,96364
2022-07-30T14:12:17.790Z,96364
2022-07-30T14:14:19.803Z,96359
2022-07-30T14:15:18.047Z,96359
2022-07-30T14:16:42.305Z,96361
2022-07-30T14:17:17.814Z,96362
2022-07-30T14:18:17.798Z,96362
2022-07-30T14:19:23.650Z,96362
2022-07-30T14:20:17.833Z,96350